createdAt,value
2022-08-10T00:00:28.478Z,80.52
2022-08-10T00:01:28.536Z,80.22
2022-08-10T00:02:28.476Z,80.32
2022-08-10T00:03:28.449Z,80.63
2022-08-10T00:04:28.436Z,80.46
2022-08-10T00:05:28.426Z,80.52
2022-08-10T00:06:29.415Z,80.43
2022-08-10T00:07:28.418Z,80.43
2022-08-10T00:08:28.398Z,81.07
2022-08-10T00:09:28.387Z,81.17
2022-08-10T00:10:28.370Z,81.17
2022-08-10T00:11:28.355Z,80.87
2022-08-10T00:12:53.146Z,81.07
2022-08-10T00:13:29.343Z,81.57
2022-08-10T00:14:28.319Z,81.57
2022-08-10T00:15:52.335Z,81.07
2022-08-10T00:16:29.296Z,81.37
2022-08-10T00:17:28.310Z,81.47
2022-08-10T00:18:34.473Z,80.87
2022-08-10T00:19:29.264Z,80.87
2022-08-10T00:20:29.252Z,81.81
2022-08-10T00:21:28.244Z,81.81
2022-08-10T00:22:28.252Z,81.77
2022-08-10T00:23:28.228Z,81.71
2022-08-10T00:24:28.214Z,81.61
2022-08-10T00:25:28.209Z,81.91
2022-08-10T00:27:58.611Z,81.81
2022-08-10T00:28:01.109Z,82.01
2022-08-10T00:28:29.179Z,82.42
2022-08-10T00:29:28.155Z,82.01
2022-08-10T00:30:28.147Z,82.01
2022-08-10T00:31:28.145Z,82.31
2022-08-10T00:32:28.131Z,82.01
2022-08-10T00:33:28.147Z,82.31
2022-08-10T00:34:28.101Z,82.11
2022-08-10T00:35:28.094Z,82.45
2022-08-10T00:36:28.079Z,82.25
2022-08-10T00:37:28.076Z,82.76
2022-08-10T00:38:28.070Z,83.22
2022-08-10T00:39:28.133Z,83.06
2022-08-10T00:40:37.303Z,83.26
2022-08-10T00:41:29.030Z,82.76
2022-08-10T00:42:28.009Z,83.06
2022-08-10T00:43:28.010Z,83.30
2022-08-10T00:44:27.999Z,83.16
2022-08-10T00:45:27.981Z,82.86
2022-08-10T00:46:27.965Z,82.45
2022-08-10T00:47:36.835Z,83.16
2022-08-10T00:48:28.966Z,82.65
2022-08-10T00:49:27.939Z,82.86
2022-08-10T00:50:27.927Z,83.40
2022-08-10T00:51:40.419Z,83.36
2022-08-10T00:52:28.896Z,83.40
2022-08-10T00:53:27.889Z,82.65
2022-08-10T00:54:27.884Z,83.40
2022-08-10T00:55:27.870Z,83.60
2022-08-10T00:57:12.348Z,83.70
2022-08-10T00:57:28.848Z,83.50
2022-08-10T00:58:27.837Z,83.50
2022-08-10T00:59:27.852Z,83.40
2022-08-10T01:00:27.813Z,83.50
2022-08-10T01:02:08.826Z,83.50
2022-08-10T01:02:28.955Z,83.80
2022-08-10T01:04:39.996Z,83.91
2022-08-10T01:04:39.997Z,83.40
2022-08-10T01:05:28.759Z,83.91
2022-08-10T01:06:27.742Z,83.70
2022-08-10T01:07:27.745Z,84.01
2022-08-10T01:08:27.725Z,83.91
2022-08-10T01:09:27.708Z,84.01
2022-08-10T01:10:27.706Z,84.01
2022-08-10T01:12:28.623Z,84.11
2022-08-10T01:12:47.624Z,84.11
2022-08-10T01:13:28.668Z,83.80
2022-08-10T01:14:27.650Z,83.70
2022-08-10T01:15:27.660Z,83.80
2022-08-10T01:16:27.631Z,83.70
2022-08-10T01:17:50.896Z,84.11
2022-08-10T01:18:28.610Z,84.71
2022-08-10T01:19:27.609Z,84.31
2022-08-10T01:20:31.052Z,84.21
2022-08-10T01:21:27.575Z,84.11
2022-08-10T01:22:27.580Z,84.01
2022-08-10T01:23:27.553Z,83.95
2022-08-10T01:24:27.539Z,83.84
2022-08-10T01:25:27.555Z,84.25
2022-08-10T01:26:31.283Z,84.01
2022-08-10T01:27:27.688Z,84.45
2022-08-10T01:28:27.493Z,84.55
2022-08-10T01:29:27.485Z,84.55
2022-08-10T01:30:27.486Z,84.15
2022-08-10T01:31:27.480Z,84.05
2022-08-10T01:32:27.452Z,84.25
2022-08-10T01:33:31.796Z,83.84
2022-08-10T01:34:28.444Z,84.05
2022-08-10T01:35:27.425Z,83.64
2022-08-10T01:36:31.887Z,84.15
2022-08-10T01:37:28.423Z,83.74
2022-08-10T01:38:27.390Z,84.15
2022-08-10T01:39:27.460Z,84.89
2022-08-10T01:40:27.363Z,84.55
2022-08-10T01:41:27.382Z,84.29
2022-08-10T01:42:28.339Z,84.19
2022-08-10T01:43:27.330Z,84.49
2022-08-10T01:44:27.326Z,84.59
2022-08-10T01:45:27.318Z,84.99
2022-08-10T01:46:27.314Z,85.40
2022-08-10T01:47:27.475Z,85.30
2022-08-10T01:48:27.275Z,84.79
2022-08-10T01:49:27.324Z,85.10
2022-08-10T01:50:27.263Z,84.89
2022-08-10T01:51:27.699Z,85.19
2022-08-10T01:52:27.240Z,85.60
2022-08-10T01:53:27.263Z,85.90
2022-08-10T01:54:28.204Z,85.80
2022-08-10T01:55:27.198Z,85.70
2022-08-10T01:56:27.184Z,86.10
2022-08-10T01:57:27.231Z,85.54
2022-08-10T01:58:27.187Z,85.14
2022-08-10T01:59:34.225Z,85.34
2022-08-10T02:00:27.156Z,86.15
2022-08-10T02:01:27.170Z,85.60
2022-08-10T02:02:27.158Z,86.15
2022-08-10T02:03:27.106Z,85.94
2022-08-10T02:04:27.089Z,86.15
2022-08-10T02:05:27.088Z,85.94
2022-08-10T02:06:27.150Z,85.84
2022-08-10T02:07:27.071Z,86.25
2022-08-10T02:08:27.044Z,85.94
2022-08-10T02:09:27.039Z,85.64
2022-08-10T02:10:27.021Z,86.04
2022-08-10T02:11:27.015Z,85.94
2022-08-10T02:12:28.031Z,86.29
2022-08-10T02:13:27.009Z,86.15
2022-08-10T02:14:33.584Z,85.94
2022-08-10T02:15:26.981Z,85.88
2022-08-10T02:16:26.957Z,86.29
2022-08-10T02:17:57.571Z,86.39
2022-08-10T02:18:27.962Z,86.59
2022-08-10T02:19:26.929Z,86.79
2022-08-10T02:20:26.916Z,86.59
2022-08-10T02:21:26.903Z,86.99
2022-08-10T02:22:35.956Z,86.59
2022-08-10T02:23:27.889Z,86.08
2022-08-10T02:24:26.874Z,86.49
2022-08-10T02:25:40.829Z,86.79
2022-08-10T02:26:27.859Z,87.10
2022-08-10T02:27:26.840Z,87.50
2022-08-10T02:28:30.358Z,87.40
2022-08-10T02:29:26.819Z,87.70
2022-08-10T02:30:26.816Z,87.60
2022-08-10T02:31:26.792Z,87.10
2022-08-10T02:32:36.547Z,87.30
2022-08-10T02:33:27.781Z,87.40
2022-08-10T02:34:26.761Z,87.81
2022-08-10T02:35:26.864Z,87.70
2022-08-10T02:36:26.732Z,87.50
2022-08-10T02:37:26.733Z,87.81
2022-08-10T02:38:59.299Z,88.10
2022-08-10T02:39:27.745Z,87.84
2022-08-10T02:42:18.402Z,88.65
2022-08-10T02:45:18.298Z,88.31
2022-08-10T02:45:20.242Z,87.84
2022-08-10T02:45:23.959Z,88.10
2022-08-10T02:45:27.433Z,88.10
2022-08-10T02:45:30.868Z,88.51
2022-08-10T02:46:26.622Z,88.15
2022-08-10T02:47:26.628Z,88.10
2022-08-10T02:48:26.603Z,87.95
2022-08-10T02:49:26.608Z,88.35
2022-08-10T02:50:26.595Z,88.55
2022-08-10T02:52:06.380Z,88.01
2022-08-10T02:52:27.582Z,88.25
2022-08-10T02:53:54.250Z,88.25
2022-08-10T02:54:27.533Z,88.35
2022-08-10T02:55:27.185Z,88.35
2022-08-10T02:56:26.528Z,88.25
2022-08-10T02:57:26.505Z,88.35
2022-08-10T02:58:26.497Z,88.55
2022-08-10T02:59:26.502Z,88.31
2022-08-10T03:00:27.476Z,88.25
2022-08-10T03:01:26.526Z,88.25
2022-08-10T03:02:26.528Z,88.25
2022-08-10T03:03:26.428Z,88.35
2022-08-10T03:04:55.416Z,88.25
2022-08-10T03:05:27.406Z,87.44
2022-08-10T03:06:26.394Z,88.65
2022-08-10T03:07:43.648Z,88.35
2022-08-10T03:08:27.373Z,88.65
2022-08-10T03:09:26.380Z,88.15
2022-08-10T03:10:26.371Z,88.15
2022-08-10T03:12:36.535Z,88.55
2022-08-10T03:12:38.217Z,88.96
2022-08-10T03:13:27.329Z,88.96
2022-08-10T03:14:26.326Z,89.56
2022-08-10T03:15:26.301Z,89.46
2022-08-10T03:16:26.297Z,89.56
2022-08-10T03:17:27.295Z,88.96
2022-08-10T03:18:26.275Z,89.36
2022-08-10T03:20:34.364Z,89.20
2022-08-10T03:20:38.468Z,89.40
2022-08-10T03:21:27.234Z,89.26
2022-08-10T03:22:26.280Z,89.56
2022-08-10T03:23:26.212Z,89.70
2022-08-10T03:24:30.461Z,89.20
2022-08-10T03:25:27.244Z,89.61
2022-08-10T03:26:26.171Z,89.50
2022-08-10T03:27:26.161Z,89.61
2022-08-10T03:28:26.148Z,89.50
2022-08-10T03:29:26.144Z,89.81
2022-08-10T03:30:32.916Z,89.61
2022-08-10T03:31:27.134Z,89.50
2022-08-10T03:32:26.133Z,89.50
2022-08-10T03:33:26.103Z,89.61
2022-08-10T03:34:33.452Z,89.50
2022-08-10T03:35:26.080Z,89.40
2022-08-10T03:36:42.493Z,89.40
2022-08-10T03:37:27.046Z,89.50
2022-08-10T03:38:26.075Z,89.30
2022-08-10T03:39:26.058Z,89.30
2022-08-10T03:40:26.010Z,89.50
2022-08-10T03:41:27.005Z,89.30
2022-08-10T03:42:26.038Z,89.65
2022-08-10T03:43:26.000Z,89.85
2022-08-10T03:44:25.988Z,89.24
2022-08-10T03:45:25.962Z,89.45
2022-08-10T03:46:25.959Z,89.30
2022-08-10T03:47:25.935Z,89.24
2022-08-10T03:48:45.203Z,89.04
2022-08-10T03:49:26.926Z,89.00
2022-08-10T03:50:45.784Z,89.34
2022-08-10T03:51:26.893Z,89.70
2022-08-10T03:52:25.876Z,89.04
2022-08-10T03:54:04.804Z,89.04
2022-08-10T03:54:26.873Z,89.14
2022-08-10T03:56:27.166Z,89.34
2022-08-10T03:56:31.439Z,89.24
2022-08-10T03:57:25.825Z,89.00
2022-08-10T03:58:25.817Z,88.84
2022-08-10T03:59:25.847Z,88.94
2022-08-10T04:00:25.810Z,89.24
2022-08-10T04:02:45.055Z,89.24
2022-08-10T04:02:52.870Z,88.84
2022-08-10T04:03:29.325Z,89.14
2022-08-10T04:04:26.134Z,89.34
2022-08-10T04:05:25.733Z,89.04
2022-08-10T04:06:26.720Z,88.53
2022-08-10T04:07:25.711Z,88.57
2022-08-10T04:08:25.700Z,88.88
2022-08-10T04:09:42.783Z,89.48
2022-08-10T04:10:26.686Z,89.28
2022-08-10T04:11:25.675Z,88.98
2022-08-10T04:12:25.657Z,89.08
2022-08-10T04:13:25.646Z,89.28
2022-08-10T04:14:38.811Z,89.28
2022-08-10T04:15:26.631Z,89.59
2022-08-10T04:16:25.607Z,89.59
2022-08-10T04:18:01.358Z,89.59
2022-08-10T04:18:26.584Z,89.48
2022-08-10T04:19:25.596Z,89.08
2022-08-10T04:20:25.570Z,89.08
2022-08-10T04:21:25.560Z,89.89
2022-08-10T04:22:25.543Z,89.48
2022-08-10T04:23:25.527Z,89.28
2022-08-10T04:24:29.796Z,89.48
2022-08-10T04:25:26.513Z,89.28
2022-08-10T04:26:25.498Z,89.59
2022-08-10T04:27:25.484Z,89.28
2022-08-10T04:28:25.477Z,89.39
2022-08-10T04:29:25.484Z,89.59
2022-08-10T04:30:27.767Z,89.59
2022-08-10T04:31:25.453Z,89.69
2022-08-10T04:32:25.437Z,89.79
2022-08-10T04:33:25.444Z,90.70
2022-08-10T04:34:25.423Z,90.80
2022-08-10T04:35:25.403Z,90.60
2022-08-10T04:36:25.386Z,90.60
2022-08-10T04:37:25.381Z,90.20
2022-08-10T04:38:25.375Z,90.30
2022-08-10T04:39:25.420Z,90.50
2022-08-10T04:40:29.509Z,90.50
2022-08-10T04:41:25.333Z,90.50
2022-08-10T04:42:25.318Z,90.25
2022-08-10T04:43:25.309Z,90.60
2022-08-10T04:44:25.373Z,89.95
2022-08-10T04:45:25.286Z,89.85
2022-08-10T04:46:55.305Z,89.99
2022-08-10T04:47:57.749Z,89.95
2022-08-10T04:48:43.530Z,89.89
2022-08-10T04:49:32.475Z,90.16
2022-08-10T04:50:26.230Z,89.69
2022-08-10T04:51:25.224Z,89.85
2022-08-10T04:52:25.479Z,89.48
2022-08-10T04:53:25.207Z,89.48
2022-08-10T04:54:25.201Z,90.30
2022-08-10T04:55:25.174Z,90.40
2022-08-10T04:56:31.815Z,90.70
2022-08-10T04:57:26.166Z,90.60
2022-08-10T04:58:25.154Z,90.25
2022-08-10T04:59:25.166Z,90.50
2022-08-10T05:00:25.138Z,90.50
2022-08-10T05:01:25.233Z,91.20
2022-08-10T05:02:30.474Z,90.16
2022-08-10T05:03:26.087Z,90.36
2022-08-10T05:04:36.254Z,90.76
2022-08-10T05:05:26.074Z,91.16
2022-08-10T05:06:25.057Z,90.56
2022-08-10T05:07:25.038Z,91.16
2022-08-10T05:08:25.032Z,90.76
2022-08-10T05:09:25.016Z,91.16
2022-08-10T05:10:25.276Z,90.96
2022-08-10T05:11:24.999Z,91.06
2022-08-10T05:12:24.989Z,90.86
2022-08-10T05:13:24.971Z,91.16
2022-08-10T05:14:24.962Z,91.61
2022-08-10T05:15:24.950Z,91.41
2022-08-10T05:16:31.963Z,91.71
2022-08-10T05:17:25.970Z,91.71
2022-08-10T05:18:24.933Z,91.51
2022-08-10T05:19:25.156Z,91.92
2022-08-10T05:20:25.895Z,91.87
2022-08-10T05:21:56.383Z,91.77
2022-08-10T05:22:25.903Z,92.52
2022-08-10T05:23:24.869Z,92.79
2022-08-10T05:24:24.854Z,92.68
2022-08-10T05:25:24.849Z,92.28
2022-08-10T05:26:24.853Z,91.77
2022-08-10T05:27:24.815Z,91.67
2022-08-10T05:28:24.808Z,91.57
2022-08-10T05:29:25.807Z,92.28
2022-08-10T05:30:24.798Z,92.58
2022-08-10T05:31:24.772Z,92.68
2022-08-10T05:32:24.778Z,92.48
2022-08-10T05:33:24.749Z,92.38
2022-08-10T05:34:24.748Z,92.38
2022-08-10T05:35:24.770Z,92.48
2022-08-10T05:36:24.738Z,92.13
2022-08-10T05:38:08.964Z,92.24
2022-08-10T05:38:25.695Z,92.44
2022-08-10T05:39:30.311Z,92.09
2022-08-10T05:40:25.674Z,91.83
2022-08-10T05:41:24.671Z,91.28
2022-08-10T05:42:24.685Z,91.24
2022-08-10T05:43:24.639Z,90.73
2022-08-10T05:44:24.629Z,90.73
2022-08-10T05:45:24.612Z,90.89
2022-08-10T05:46:24.624Z,90.59
2022-08-10T05:47:24.606Z,89.64
2022-08-10T05:48:41.894Z,89.70
2022-08-10T05:49:25.573Z,88.79
2022-08-10T05:50:24.557Z,87.94
2022-08-10T05:51:24.545Z,87.34
2022-08-10T05:52:24.557Z,87.63
2022-08-10T05:54:02.863Z,86.58
2022-08-10T05:54:25.517Z,86.29
2022-08-10T05:55:24.503Z,86.04
2022-08-10T05:56:24.493Z,85.34
2022-08-10T05:57:24.503Z,85.34
2022-08-10T05:58:24.468Z,85.00
2022-08-10T06:00:10.977Z,83.99
2022-08-10T06:00:36.660Z,84.45
2022-08-10T06:01:25.455Z,83.11
2022-08-10T06:02:33.697Z,82.60
2022-08-10T06:03:25.435Z,81.76
2022-08-10T06:04:24.406Z,81.96
2022-08-10T06:05:24.402Z,81.85
2022-08-10T06:06:25.050Z,81.41
2022-08-10T06:07:24.381Z,81.38
2022-08-10T06:08:26.872Z,80.07
2022-08-10T06:09:24.371Z,79.63
2022-08-10T06:10:32.047Z,78.79
2022-08-10T06:12:26.566Z,78.89
2022-08-10T06:12:29.158Z,78.25
2022-08-10T06:13:30.154Z,77.65
2022-08-10T06:14:28.319Z,78.35
2022-08-10T06:15:50.558Z,78.25
2022-08-10T06:16:25.290Z,77.48
2022-08-10T06:17:24.261Z,76.84
2022-08-10T06:18:24.262Z,75.70
2022-08-10T06:19:24.269Z,74.46
2022-08-10T06:20:24.253Z,74.46
2022-08-10T06:21:24.215Z,73.43
2022-08-10T06:22:24.220Z,73.36
2022-08-10T06:23:24.198Z,73.46
2022-08-10T06:24:25.469Z,73.53
2022-08-10T06:26:09.037Z,72.89
2022-08-10T06:26:25.169Z,72.45
2022-08-10T06:27:34.214Z,72.13
2022-08-10T06:28:25.193Z,71.79
2022-08-10T06:29:24.142Z,71.19
2022-08-10T06:30:24.133Z,70.65
2022-08-10T06:31:24.108Z,70.86
2022-08-10T06:32:24.113Z,69.62
2022-08-10T06:33:24.100Z,69.29
2022-08-10T06:34:24.103Z,68.86
2022-08-10T06:35:24.084Z,68.26
2022-08-10T06:36:24.087Z,68.07
2022-08-10T06:37:24.037Z,68.23
2022-08-10T06:38:24.045Z,67.73
2022-08-10T06:39:36.103Z,67.54
2022-08-10T06:40:25.087Z,67.33
2022-08-10T06:41:24.024Z,67.43
2022-08-10T06:42:25.052Z,67.03
2022-08-10T06:43:23.971Z,67.43
2022-08-10T06:44:23.976Z,67.20
2022-08-10T06:45:23.973Z,67.10
2022-08-10T06:46:23.948Z,67.33
2022-08-10T06:47:23.959Z,67.03
2022-08-10T06:48:23.926Z,67.93
2022-08-10T06:49:23.909Z,67.93
2022-08-10T06:50:44.662Z,66.74
2022-08-10T06:51:24.930Z,66.64
2022-08-10T06:52:23.940Z,66.53
2022-08-10T06:53:23.873Z,66.31
2022-08-10T06:54:24.857Z,65.51
2022-08-10T06:55:40.000Z,64.88
2022-08-10T06:56:36.636Z,65.48
2022-08-10T06:57:24.837Z,65.64
2022-08-10T06:58:26.691Z,64.15
2022-08-10T06:59:23.822Z,64.15
2022-08-10T07:00:23.850Z,63.76
2022-08-10T07:01:24.831Z,64.28
2022-08-10T07:02:23.786Z,65.25
2022-08-10T07:03:23.759Z,64.95
2022-08-10T07:04:32.713Z,64.36
2022-08-10T07:05:24.751Z,65.48
2022-08-10T07:06:23.731Z,64.78
2022-08-10T07:07:23.731Z,65.45
2022-08-10T07:08:23.713Z,64.98
2022-08-10T07:09:23.730Z,65.48
2022-08-10T07:10:23.687Z,64.42
2022-08-10T07:11:23.671Z,64.12
2022-08-10T07:12:23.680Z,65.11
2022-08-10T07:14:15.633Z,66.80
2022-08-10T07:14:24.655Z,65.31
2022-08-10T07:15:23.670Z,65.71
2022-08-10T07:16:24.634Z,66.01
2022-08-10T07:17:23.624Z,67.00
2022-08-10T07:18:23.619Z,66.11
2022-08-10T07:19:23.591Z,65.61
2022-08-10T07:20:23.584Z,65.31
2022-08-10T07:21:23.568Z,66.80
2022-08-10T07:23:27.061Z,66.31
2022-08-10T07:23:57.016Z,65.41
2022-08-10T07:24:24.538Z,66.11
2022-08-10T07:25:23.538Z,65.51
2022-08-10T07:26:23.528Z,64.61
2022-08-10T07:27:23.511Z,65.61
2022-08-10T07:28:23.497Z,65.91
2022-08-10T07:29:26.675Z,65.81
2022-08-10T07:30:24.487Z,64.51
2022-08-10T07:31:49.291Z,65.98
2022-08-10T07:32:24.448Z,66.08
2022-08-10T07:33:23.467Z,64.18
2022-08-10T07:34:29.442Z,65.28
2022-08-10T07:35:23.444Z,65.58
2022-08-10T07:36:23.407Z,66.57
2022-08-10T07:37:23.417Z,66.35
2022-08-10T07:38:23.397Z,65.88
2022-08-10T07:39:57.961Z,66.17
2022-08-10T07:40:24.409Z,63.56
2022-08-10T07:41:23.346Z,63.09
2022-08-10T07:42:23.367Z,65.64
2022-08-10T07:43:23.326Z,64.15
2022-08-10T07:44:23.318Z,62.89
2022-08-10T07:45:23.323Z,63.09
2022-08-10T07:46:23.303Z,63.16
2022-08-10T07:47:52.345Z,62.76
2022-08-10T07:48:24.306Z,62.76
2022-08-10T07:49:23.263Z,62.56
2022-08-10T07:50:23.269Z,63.56
2022-08-10T07:51:23.240Z,65.42
2022-08-10T07:52:23.239Z,66.21
2022-08-10T07:53:23.290Z,61.83
2022-08-10T07:54:23.212Z,62.93
2022-08-10T07:56:02.125Z,60.25
2022-08-10T07:56:45.840Z,59.35
2022-08-10T07:57:30.899Z,60.31
2022-08-10T07:58:24.203Z,60.61
2022-08-10T07:59:30.229Z,58.03
2022-08-10T08:00:23.144Z,57.93
2022-08-10T08:01:23.244Z,57.81
2022-08-10T08:02:23.128Z,57.43
2022-08-10T08:03:23.109Z,59.30
2022-08-10T08:04:23.112Z,60.58
2022-08-10T08:05:29.877Z,58.77
2022-08-10T08:06:24.097Z,57.68
2022-08-10T08:07:23.064Z,58.30
2022-08-10T08:08:23.066Z,56.59
2022-08-10T08:09:23.047Z,55.99
2022-08-10T08:10:23.036Z,56.19
2022-08-10T08:11:25.472Z,56.88
2022-08-10T08:12:23.016Z,57.75
2022-08-10T08:13:23.016Z,56.36
2022-08-10T08:14:22.994Z,57.75
2022-08-10T08:16:19.960Z,56.66
2022-08-10T08:16:23.978Z,56.85
2022-08-10T08:17:22.968Z,57.35
2022-08-10T08:18:25.580Z,59.41
2022-08-10T08:19:26.623Z,57.85
2022-08-10T08:20:22.925Z,56.73
2022-08-10T08:24:06.975Z,55.94
2022-08-10T08:24:10.071Z,57.82
2022-08-10T08:24:11.140Z,57.92
2022-08-10T08:24:32.243Z,58.48
2022-08-10T08:25:23.868Z,55.61
2022-08-10T08:26:22.863Z,53.73
2022-08-10T08:27:22.864Z,54.85
2022-08-10T08:28:22.842Z,55.41
2022-08-10T08:29:22.834Z,54.62
2022-08-10T08:30:26.832Z,54.32
2022-08-10T08:31:23.816Z,54.20
2022-08-10T08:32:22.814Z,54.32
2022-08-10T08:33:41.155Z,54.30
2022-08-10T08:34:23.788Z,54.79
2022-08-10T08:35:22.758Z,55.36
2022-08-10T08:36:22.754Z,53.18
2022-08-10T08:38:33.027Z,54.37
2022-08-10T08:38:33.406Z,54.47
2022-08-10T08:39:22.782Z,53.78
2022-08-10T08:40:22.706Z,52.19
2022-08-10T08:41:22.700Z,53.65
2022-08-10T08:42:22.696Z,52.76
2022-08-10T08:43:22.679Z,50.66
2022-08-10T08:44:22.686Z,54.32
2022-08-10T08:45:22.658Z,54.02
2022-08-10T08:46:22.642Z,54.22
2022-08-10T08:48:04.117Z,53.33
2022-08-10T08:48:23.620Z,55.08
2022-08-10T08:50:07.895Z,53.20
2022-08-10T08:50:23.596Z,53.60
2022-08-10T08:52:09.832Z,51.52
2022-08-10T08:52:23.583Z,50.21
2022-08-10T08:53:22.941Z,49.52
2022-08-10T08:54:22.580Z,48.65
2022-08-10T08:56:03.841Z,50.04
2022-08-10T08:56:23.530Z,50.12
2022-08-10T08:57:49.080Z,50.71
2022-08-10T08:58:23.508Z,48.93
2022-08-10T08:59:22.541Z,50.81
2022-08-10T09:00:22.499Z,52.06
2022-08-10T09:01:22.538Z,51.97
2022-08-10T09:02:22.467Z,50.68
2022-08-10T09:03:27.556Z,49.01
2022-08-10T09:04:23.458Z,50.59
2022-08-10T09:05:22.497Z,50.59
2022-08-10T09:06:22.424Z,49.20
2022-08-10T09:07:59.758Z,49.79
2022-08-10T09:08:23.400Z,49.67
2022-08-10T09:09:22.399Z,50.98
2022-08-10T09:10:22.380Z,53.52
2022-08-10T09:11:22.388Z,51.64
2022-08-10T09:12:22.373Z,51.92
2022-08-10T09:13:22.352Z,50.95
2022-08-10T09:14:25.715Z,49.55
2022-08-10T09:15:39.641Z,47.87
2022-08-10T09:16:23.344Z,48.75
2022-08-10T09:17:22.307Z,46.98
2022-08-10T09:18:22.295Z,47.47
2022-08-10T09:19:35.517Z,46.69
2022-08-10T09:20:23.328Z,45.70
2022-08-10T09:21:22.269Z,47.08
2022-08-10T09:22:22.251Z,46.88
2022-08-10T09:23:22.242Z,48.83
2022-08-10T09:24:23.224Z,47.45
2022-08-10T09:25:22.287Z,47.75
2022-08-10T09:26:22.210Z,48.63
2022-08-10T09:27:22.199Z,51.50
2022-08-10T09:28:22.181Z,47.55
2022-08-10T09:29:22.173Z,49.69
2022-08-10T09:30:29.365Z,46.44
2022-08-10T09:31:23.548Z,46.15
2022-08-10T09:36:14.793Z,46.94
2022-08-10T09:36:21.166Z,44.67
2022-08-10T09:36:21.259Z,46.56
2022-08-10T09:36:28.094Z,46.66
2022-08-10T09:36:33.268Z,45.48
2022-08-10T09:37:23.083Z,48.34
2022-08-10T09:38:23.070Z,47.16
2022-08-10T09:40:58.321Z,46.56
2022-08-10T09:40:59.956Z,46.96
2022-08-10T09:41:23.102Z,46.76
2022-08-10T09:42:22.030Z,48.02
2022-08-10T09:43:26.250Z,50.85
2022-08-10T09:44:22.005Z,47.50
2022-08-10T09:45:21.998Z,47.11
2022-08-10T09:46:22.000Z,45.73
2022-08-10T09:47:21.981Z,45.43
2022-08-10T09:48:22.968Z,45.43
2022-08-10T09:49:25.790Z,44.76
2022-08-10T09:50:22.955Z,46.44
2022-08-10T09:51:44.346Z,45.83
2022-08-10T09:52:22.920Z,46.52
2022-08-10T09:53:21.912Z,46.62
2022-08-10T09:57:17.813Z,47.60
2022-08-10T09:59:26.874Z,44.55
2022-08-10T10:04:01.603Z,43.24
2022-08-10T10:05:03.479Z,42.18
2022-08-10T10:06:01.049Z,45.31
2022-08-10T10:07:00.661Z,43.05
2022-08-10T10:08:19.060Z,43.93
2022-08-10T10:09:10.705Z,45.51
2022-08-10T10:10:57.667Z,44.45
2022-08-10T10:17:30.893Z,45.73
2022-08-10T10:19:08.935Z,45.41
2022-08-10T10:20:09.369Z,43.64
2022-08-10T10:21:11.376Z,44.62
2022-08-10T10:24:58.465Z,41.86
2022-08-10T10:33:51.599Z,41.99
2022-08-10T10:35:03.205Z,44.15
2022-08-10T10:37:09.861Z,43.27
2022-08-10T10:41:27.343Z,43.37
2022-08-10T10:42:23.312Z,46.42
2022-08-10T10:43:12.699Z,43.37
2022-08-10T10:45:31.072Z,43.96
2022-08-10T10:48:42.866Z,41.38
2022-08-10T10:49:42.837Z,43.27
2022-08-10T10:50:42.826Z,41.77
2022-08-10T10:58:44.364Z,41.45
2022-08-10T10:59:54.959Z,42.04
2022-08-10T11:00:45.315Z,42.63
2022-08-10T11:01:44.386Z,41.85
2022-08-10T11:02:44.292Z,41.75
2022-08-10T11:03:44.282Z,39.48
2022-08-10T11:04:44.286Z,39.87
2022-08-10T11:05:44.266Z,40.37
2022-08-10T11:06:44.250Z,40.47
2022-08-10T11:07:44.234Z,39.78
2022-08-10T11:08:45.226Z,41.45
2022-08-10T11:10:05.527Z,39.87
2022-08-10T11:10:47.533Z,39.48
2022-08-10T11:12:02.160Z,38.32
2022-08-10T11:12:46.943Z,39.01
2022-08-10T11:14:24.409Z,40.96
2022-08-10T11:14:45.175Z,40.27
2022-08-10T11:15:47.696Z,38.60
2022-08-10T11:16:44.142Z,39.97
2022-08-10T11:17:44.124Z,40.17
2022-08-10T11:18:44.124Z,42.14
2022-08-10T11:20:01.932Z,41.94
2022-08-10T11:20:45.113Z,42.24
2022-08-10T11:21:44.112Z,42.24
2022-08-10T11:32:20.518Z,42.76
2022-08-10T11:33:30.925Z,42.34
2022-08-10T11:34:47.704Z,41.35
2022-08-10T11:35:35.757Z,40.48
2022-08-10T11:36:13.754Z,39.79
2022-08-10T11:37:13.823Z,39.42
2022-08-10T11:38:29.989Z,40.21
2022-08-10T11:39:15.059Z,40.13
2022-08-10T11:40:13.942Z,38.93
2022-08-10T11:42:06.477Z,40.31
2022-08-10T11:42:24.242Z,39.92
2022-08-10T11:43:15.004Z,40.51
2022-08-10T11:44:13.648Z,40.39
2022-08-10T11:45:13.622Z,41.00
2022-08-10T11:46:27.648Z,40.69
2022-08-10T11:47:15.299Z,40.31
2022-08-10T11:48:53.853Z,41.99
2022-08-10T11:49:22.262Z,40.88
2022-08-10T11:50:14.805Z,40.48
2022-08-10T11:52:38.169Z,38.42
2022-08-10T11:53:38.930Z,39.50
2022-08-10T11:54:38.001Z,39.89
2022-08-10T11:55:38.008Z,38.42
2022-08-10T11:56:37.992Z,38.71
2022-08-10T11:57:54.696Z,38.42
2022-08-10T11:58:38.970Z,38.02
2022-08-10T11:59:37.949Z,38.14
2022-08-10T12:01:14.146Z,39.01
2022-08-10T12:01:42.298Z,41.77
2022-08-10T12:02:39.936Z,40.29
2022-08-10T12:05:56.674Z,41.06
2022-08-10T12:06:56.854Z,40.29
2022-08-10T12:10:05.551Z,42.54
2022-08-10T12:10:06.145Z,41.75
2022-08-10T12:10:07.080Z,41.55
2022-08-10T12:11:23.991Z,42.34
2022-08-10T12:11:58.320Z,40.56
2022-08-10T12:13:20.886Z,40.17
2022-08-10T12:14:19.560Z,40.17
2022-08-10T12:14:57.808Z,40.39
2022-08-10T12:15:56.706Z,39.87
2022-08-10T12:16:57.788Z,41.85
2022-08-10T12:17:56.613Z,39.87
2022-08-10T12:18:59.981Z,39.28
2022-08-10T12:19:59.552Z,39.48
2022-08-10T12:20:58.304Z,38.79
2022-08-10T12:21:56.524Z,41.35
2022-08-10T12:22:56.499Z,41.45
2022-08-10T12:24:03.157Z,41.94
2022-08-10T12:24:57.768Z,41.85
2022-08-10T12:25:58.643Z,43.03
2022-08-10T12:26:56.452Z,41.35
2022-08-10T12:27:56.437Z,42.24
2022-08-10T12:28:56.439Z,41.94
2022-08-10T12:29:56.413Z,40.08
2022-08-10T12:30:56.403Z,42.34
2022-08-10T12:31:56.390Z,42.04
2022-08-10T12:32:56.871Z,41.55
2022-08-10T12:34:01.786Z,38.42
2022-08-10T12:34:56.354Z,39.60
2022-08-10T12:36:17.442Z,39.31
2022-08-10T12:36:57.359Z,38.71
2022-08-10T12:37:56.333Z,40.19
2022-08-10T12:38:56.336Z,38.32
2022-08-10T12:40:12.004Z,37.43
2022-08-10T12:40:57.288Z,40.29
2022-08-10T12:41:56.299Z,38.22
2022-08-10T12:43:13.422Z,37.24
2022-08-10T12:44:07.032Z,39.40
2022-08-10T12:44:57.263Z,38.81
2022-08-10T12:45:56.236Z,38.42
2022-08-10T12:46:56.252Z,39.48
2022-08-10T12:47:56.218Z,38.71
2022-08-10T12:48:56.205Z,38.32
2022-08-10T12:50:13.798Z,38.51
2022-08-10T12:50:57.182Z,37.73
2022-08-10T12:51:56.173Z,37.93
2022-08-10T12:52:56.163Z,40.39
2022-08-10T12:53:56.169Z,39.09
2022-08-10T12:54:56.177Z,37.43
2022-08-10T12:55:56.128Z,37.83
2022-08-10T12:56:56.123Z,37.24
2022-08-10T12:57:56.126Z,38.51
2022-08-10T12:58:59.482Z,38.30
2022-08-10T12:59:56.100Z,38.30
2022-08-10T13:01:15.074Z,35.74
2022-08-10T13:02:07.664Z,35.64
2022-08-10T13:02:57.087Z,36.53
2022-08-10T13:04:23.371Z,37.02
2022-08-10T13:04:57.064Z,37.61
2022-08-10T13:06:02.294Z,35.64
2022-08-10T13:06:56.004Z,35.44
2022-08-10T13:08:25.259Z,35.94
2022-08-10T13:08:56.981Z,38.38
2022-08-10T13:09:56.967Z,39.48
2022-08-10T13:10:55.975Z,38.09
2022-08-10T13:12:35.688Z,38.28
2022-08-10T13:12:56.944Z,36.32
2022-08-10T13:13:55.929Z,38.58
2022-08-10T13:14:55.920Z,38.58
2022-08-10T13:15:55.973Z,37.99
2022-08-10T13:16:55.894Z,38.28
2022-08-10T13:17:55.887Z,37.59
2022-08-10T13:18:55.890Z,38.26
2022-08-10T13:19:59.975Z,37.59
2022-08-10T13:20:56.891Z,36.51
2022-08-10T13:21:55.843Z,37.30
2022-08-10T13:22:55.829Z,37.32
2022-08-10T13:24:04.313Z,37.51
2022-08-10T13:24:56.310Z,37.63
2022-08-10T13:25:55.807Z,38.12
2022-08-10T13:27:25.883Z,39.68
2022-08-10T13:28:02.423Z,39.97
2022-08-10T13:28:56.770Z,39.76
2022-08-10T13:30:04.067Z,38.38
2022-08-10T13:30:55.764Z,38.38
2022-08-10T13:32:10.113Z,39.07
2022-08-10T13:32:56.750Z,40.45
2022-08-10T13:34:40.217Z,39.86
2022-08-10T13:34:56.698Z,39.76
2022-08-10T13:35:55.789Z,38.18
2022-08-10T13:36:55.680Z,38.97
2022-08-10T13:37:55.668Z,38.09
2022-08-10T13:38:55.675Z,38.87
2022-08-10T13:39:59.441Z,39.17
2022-08-10T13:40:55.639Z,39.86
2022-08-10T13:41:55.635Z,39.05
2022-08-10T13:42:55.611Z,39.47
2022-08-10T13:43:55.603Z,39.54
2022-08-10T13:44:55.612Z,38.95
2022-08-10T13:45:55.593Z,37.77